Time;durP1;ratioP1;P1;durP2;ratioP2;P2;SDS_P1;SDS_P2;PMS_P1;PMS_P2;Temp;Humidity;BMP_temperature;BMP_pressure;BME280_temperature;BME280_humidity;BME280_pressure;Samples;Min_cycle;Max_cycle;Signal;HPM_P1;HPM_P2
2022/05/07 00:00:35;;;;;;;10.20;6.03;;;;;;;10.80;47.46;101883.13;1702083;84;25740;-57
2022/05/07 00:03:04;;;;;;;23.60;6.45;;;;;;;10.83;47.38;101887.43;1707221;83;25775;-57
2022/05/07 00:05:31;;;;;;;17.23;6.10;;;;;;;10.82;47.20;101889.74;1707044;83;26373;-56
2022/05/07 00:07:58;;;;;;;17.37;6.00;;;;;;;10.84;47.26;101887.81;1706955;84;25781;-57
2022/05/07 00:10:25;;;;;;;19.92;5.80;;;;;;;10.82;47.46;101880.32;1707108;83;27324;-58
2022/05/07 00:12:53;;;;;;;19.73;6.33;;;;;;;10.82;47.05;101888.40;1706752;84;25747;-56
2022/05/07 00:15:20;;;;;;;16.97;5.83;;;;;;;10.84;47.05;101886.46;1706899;83;25812;-57
2022/05/07 00:18:06;;;;;;;12.98;5.28;;;;;;;10.87;47.15;101886.25;1706951;84;44756;-57
2022/05/07 00:20:34;;;;;;;13.78;6.37;;;;;;;10.90;46.96;101883.31;1706795;83;25771;-57
2022/05/07 00:23:02;;;;;;;22.52;6.50;;;;;;;10.90;46.90;101883.81;1707265;84;27442;-56
2022/05/07 00:25:30;;;;;;;16.50;5.47;;;;;;;10.91;47.12;101876.97;1707110;83;25547;-56
2022/05/07 00:27:57;;;;;;;25.27;5.95;;;;;;;10.90;47.64;101875.24;1708495;83;25717;-57
2022/05/07 00:30:24;;;;;;;31.30;6.42;;;;;;;10.91;47.19;101876.12;1752711;80;25940;-56
2022/05/07 00:32:50;;;;;;;24.82;6.10;;;;;;;10.92;47.01;101876.50;1766505;80;25761;-57
2022/05/07 00:35:18;;;;;;;25.65;6.78;;;;;;;10.94;46.80;101880.80;1775361;80;27497;-56
2022/05/07 00:37:44;;;;;;;19.50;5.97;;;;;;;10.95;46.91;101874.91;1775006;80;25959;-56
2022/05/07 00:40:11;;;;;;;21.12;6.83;;;;;;;10.95;47.03;101877.60;1775211;80;25692;-56
2022/05/07 00:42:40;;;;;;;27.67;10.48;;;;;;;10.95;47.05;101869.52;1775256;80;25782;-56
2022/05/07 00:45:09;;;;;;;21.68;6.55;;;;;;;10.93;46.90;101876.38;1775092;80;25933;-56
2022/05/07 00:47:38;;;;;;;14.53;6.17;;;;;;;10.93;46.98;101875.53;1775091;80;27505;-59
2022/05/07 00:52:53;;;;;;;14.78;5.85;;;;;;;10.94;47.31;101879.91;1730800;82;25773;-57
2022/05/07 00:55:20;;;;;;;16.40;5.60;;;;;;;10.87;47.19;101875.48;1730499;82;26163;-57
2022/05/07 00:57:47;;;;;;;18.95;6.40;;;;;;;10.84;47.24;101878.89;1730768;81;25674;-57
2022/05/07 01:00:17;;;;;;;22.82;7.05;;;;;;;10.81;47.33;101877.25;1730492;82;27483;-56
2022/05/07 01:02:44;;;;;;;18.80;5.42;;;;;;;10.80;47.30;101877.75;1762450;81;25747;-58
2022/05/07 01:05:11;;;;;;;22.95;5.53;;;;;;;10.77;47.35;101876.61;1738052;82;25633;-57
2022/05/07 01:07:39;;;;;;;23.67;6.33;;;;;;;10.76;47.68;101875.39;1741518;82;26444;-57
2022/05/07 01:10:08;;;;;;;13.83;6.22;;;;;;;10.71;47.91;101874.37;1738096;82;25813;-57
2022/05/07 01:12:36;;;;;;;16.80;6.53;;;;;;;10.68;48.24;101871.05;1738031;82;28149;-57
2022/05/07 01:15:07;;;;;;;17.52;6.40;;;;;;;10.63;48.64;101868.19;1737892;82;25770;-57
2022/05/07 01:17:34;;;;;;;21.55;6.55;;;;;;;10.59;48.52;101870.73;1741846;82;25507;-57
2022/05/07 01:20:09;;;;;;;12.50;6.40;;;;;;;10.58;48.61;101869.51;1738112;82;26403;-57
2022/05/07 01:22:34;;;;;;;22.27;6.10;;;;;;;10.56;48.87;101877.67;1738053;82;26186;-56
2022/05/07 01:25:02;;;;;;;12.68;5.42;;;;;;;10.51;48.88;101877.15;1737934;82;27537;-57
2022/05/07 01:27:29;;;;;;;13.05;6.33;;;;;;;10.48;49.21;101874.20;1738233;82;26500;-57
2022/05/07 01:29:56;;;;;;;22.87;6.20;;;;;;;10.43;49.52;101871.45;1740427;81;25782;-57
2022/05/07 01:32:24;;;;;;;20.02;6.85;;;;;;;10.37;49.51;101868.70;1728411;82;26565;-57
2022/05/07 01:34:53;;;;;;;17.00;7.30;;;;;;;10.31;49.51;101873.11;1702293;84;25492;-56
2022/05/07 01:37:22;;;;;;;10.63;6.20;;;;;;;10.28;49.99;101870.16;1702399;84;28446;-57
2022/05/07 01:39:49;;;;;;;17.20;6.92;;;;;;;10.24;49.98;101877.20;1702012;84;25503;-57
2022/05/07 01:42:17;;;;;;;17.40;7.05;;;;;;;10.20;49.92;101879.75;1702151;84;25646;-57
2022/05/07 01:44:44;;;;;;;15.60;7.20;;;;;;;10.17;49.98;101873.61;1702152;84;25913;-57
2022/05/07 01:49:58;;;;;;;12.37;6.05;;;;;;;10.11;50.23;101865.98;1700188;83;27623;-57
2022/05/07 01:52:25;;;;;;;19.42;7.53;;;;;;;10.08;50.78;101872.05;1696878;84;25826;-57
2022/05/07 01:54:52;;;;;;;17.87;7.58;;;;;;;10.02;50.61;101870.15;1696952;84;25785;-57
2022/05/07 01:57:19;;;;;;;20.43;7.53;;;;;;;10.02;50.58;101865.27;1696906;83;25738;-57
2022/05/07 01:59:46;;;;;;;15.75;7.12;;;;;;;10.02;50.98;101863.92;1696847;84;25740;-56
2022/05/07 02:02:15;;;;;;;20.23;7.67;;;;;;;10.00;51.20;101858.63;1727716;81;27422;-57
2022/05/07 02:04:42;;;;;;;23.20;7.35;;;;;;;9.97;51.39;101859.33;1742682;82;25824;-57
2022/05/07 02:07:10;;;;;;;16.87;6.92;;;;;;;9.94;51.31;101856.38;1742934;82;25727;-57
2022/05/07 02:09:38;;;;;;;21.75;8.08;;;;;;;9.93;51.29;101858.69;1742883;82;26650;-57
2022/05/07 02:12:07;;;;;;;16.35;6.78;;;;;;;9.92;51.11;101860.14;1742821;82;25715;-57
2022/05/07 02:14:35;;;;;;;22.42;6.40;;;;;;;9.88;51.36;101856.80;1742941;82;28124;-57
2022/05/07 02:17:03;;;;;;;16.48;6.37;;;;;;;9.86;51.33;101868.98;1742845;82;25870;-57
2022/05/07 02:19:30;;;;;;;20.65;7.60;;;;;;;9.82;51.69;101866.61;1742726;82;25915;-57
2022/05/07 02:21:57;;;;;;;18.15;6.70;;;;;;;9.78;51.37;101870.48;1742900;82;25811;-56
2022/05/07 02:24:25;;;;;;;21.75;7.35;;;;;;;9.77;51.28;101870.11;1743035;82;25652;-57
2022/05/07 02:26:52;;;;;;;15.58;6.58;;;;;;;9.72;51.85;101861.02;1742837;82;27525;-57
2022/05/07 02:29:20;;;;;;;20.08;7.30;;;;;;;9.64;51.56;101864.70;1742855;82;25890;-57
2022/05/07 02:32:03;;;;;;;20.08;6.72;;;;;;;9.62;51.60;101862.59;1738472;82;25495;-56
2022/05/07 02:34:32;;;;;;;19.40;7.47;;;;;;;9.62;51.65;101867.50;1702645;83;25984;-57
2022/05/07 02:37:00;;;;;;;19.40;7.67;;;;;;;9.61;51.61;101865.78;1702210;84;25759;-56
2022/05/07 02:39:27;;;;;;;23.70;7.35;;;;;;;9.62;51.76;101871.53;1702327;83;27486;-57
2022/05/07 02:44:40;;;;;;;20.85;8.00;;;;;;;9.57;52.42;101864.73;1702568;83;25807;-57
2022/05/07 02:47:09;;;;;;;23.07;7.37;;;;;;;9.57;52.07;101864.73;1702393;84;25969;-57
2022/05/07 02:49:37;;;;;;;20.43;8.18;;;;;;;9.56;51.90;101862.52;1703742;83;25745;-56
2022/05/07 02:52:04;;;;;;;26.00;7.78;;;;;;;9.55;51.55;101857.64;1709120;83;27666;-57
2022/05/07 02:54:31;;;;;;;20.15;7.92;;;;;;;9.55;51.37;101861.67;1708748;84;25781;-56
2022/05/07 02:56:58;;;;;;;16.90;7.00;;;;;;;9.58;51.41;101859.75;1708762;83;25798;-57
2022/05/07 02:59:26;;;;;;;21.07;7.35;;;;;;;9.58;51.22;101861.94;1708787;83;25939;-57
2022/05/07 03:01:52;;;;;;;16.07;6.95;;;;;;;9.59;51.00;101860.98;1709978;83;26178;-57
2022/05/07 03:04:20;;;;;;;24.20;7.67;;;;;;;9.61;51.11;101859.52;1710455;83;27536;-56
2022/05/07 03:06:48;;;;;;;26.35;8.10;;;;;;;9.61;51.41;101857.72;1710272;83;25767;-57
2022/05/07 03:09:15;;;;;;;19.62;7.03;;;;;;;9.60;51.47;101861.83;1710373;83;25809;-56
2022/05/07 03:11:43;;;;;;;18.52;7.53;;;;;;;9.56;51.42;101858.48;1710348;83;25676;-56
2022/05/07 03:14:12;;;;;;;19.55;7.80;;;;;;;9.54;51.44;101859.95;1710430;83;25733;-57
2022/05/07 03:16:40;;;;;;;24.43;7.53;;;;;;;9.55;51.34;101856.30;1710383;83;27494;-57
2022/05/07 03:19:08;;;;;;;28.02;8.58;;;;;;;9.55;51.23;101859.45;1710447;83;25841;-56
2022/05/07 03:21:36;;;;;;;23.65;8.33;;;;;;;9.54;51.28;101861.78;1710271;83;25848;-57
2022/05/07 03:24:03;;;;;;;21.68;7.00;;;;;;;9.57;51.21;101860.71;1710731;83;26759;-57
2022/05/07 03:26:30;;;;;;;26.48;7.80;;;;;;;9.56;51.30;101867.89;1710249;83;25779;-57
2022/05/07 03:28:58;;;;;;;31.77;7.83;;;;;;;9.57;51.34;101862.05;1710337;83;27487;-57
2022/05/07 03:31:26;;;;;;;23.50;7.60;;;;;;;9.56;51.46;101867.89;1725368;82;25650;-58
2022/05/07 03:33:53;;;;;;;24.95;7.80;;;;;;;9.57;51.56;101862.05;1742606;82;25820;-56
2022/05/07 03:36:21;;;;;;;27.73;8.15;;;;;;;9.54;51.51;101865.31;1742607;82;25767;-56
2022/05/07 03:38:49;;;;;;;21.80;7.80;;;;;;;9.54;51.82;101867.16;1742758;82;25716;-57
2022/05/07 03:41:20;;;;;;;18.52;8.38;;;;;;;9.54;51.86;101877.91;1742761;82;27599;-58
2022/05/07 03:43:48;;;;;;;23.92;8.68;;;;;;;9.57;51.98;101876.33;1742515;82;25538;-57
2022/05/07 03:46:15;;;;;;;25.02;7.75;;;;;;;9.58;52.02;101874.03;1742999;82;25735;-57
2022/05/07 03:48:44;;;;;;;18.05;7.22;;;;;;;9.58;52.11;101875.38;1742761;82;25850;-57
2022/05/07 03:51:11;;;;;;;21.52;7.97;;;;;;;9.57;52.22;101879.52;1742725;82;25750;-57
2022/05/07 03:53:39;;;;;;;22.17;7.92;;;;;;;9.59;52.27;101877.59;1742825;82;27492;-57
2022/05/07 03:56:15;;;;;;;26.50;8.48;;;;;;;9.60;52.34;101880.17;1743113;82;25721;-57
2022/05/07 03:58:42;;;;;;;21.27;7.87;;;;;;;9.62;52.24;101876.91;1742904;82;25673;-57
2022/05/07 04:01:10;;;;;;;16.87;7.37;;;;;;;9.64;52.55;101883.02;1729640;82;25834;-57
2022/05/07 04:03:37;;;;;;;17.77;6.67;;;;;;;9.66;52.33;101882.93;1684283;84;25698;-56
2022/05/07 04:06:05;;;;;;;19.98;6.95;;;;;;;9.69;52.46;101882.70;1684340;84;28347;-57
2022/05/07 04:08:32;;;;;;;25.75;7.37;;;;;;;9.73;52.42;101878.86;1684296;85;25528;-57
2022/05/07 04:11:01;;;;;;;19.85;7.55;;;;;;;9.79;52.39;101889.69;1684359;84;25716;-57
2022/05/07 04:13:28;;;;;;;19.52;7.15;;;;;;;9.84;52.71;101887.53;1684292;85;25739;-57
2022/05/07 04:15:57;;;;;;;28.25;7.95;;;;;;;9.85;52.61;101892.83;1684486;84;25772;-57
2022/05/07 04:18:25;;;;;;;21.42;7.55;;;;;;;9.87;52.62;101893.56;1684228;85;27486;-57
2022/05/07 04:20:54;;;;;;;20.12;7.72;;;;;;;9.93;52.78;101895.47;1684173;84;26090;-56
2022/05/07 04:23:22;;;;;;;21.65;7.72;;;;;;;9.96;52.68;101896.58;1684323;85;25746;-57
2022/05/07 04:25:51;;;;;;;22.40;7.28;;;;;;;9.99;52.71;101898.61;1684200;85;25813;-57
2022/05/07 04:28:19;;;;;;;23.15;7.67;;;;;;;10.05;52.70;101902.67;1684231;84;25801;-56
2022/05/07 04:30:48;;;;;;;24.63;7.30;;;;;;;10.10;52.75;101899.67;1698626;82;27856;-57
2022/05/07 04:33:17;;;;;;;19.12;7.28;;;;;;;10.17;52.83;101895.63;1727532;82;27293;-57
2022/05/07 04:35:48;;;;;;;30.52;8.23;;;;;;;10.23;52.59;101898.34;1750115;81;25786;-56
2022/05/07 04:38:14;;;;;;;29.35;8.15;;;;;;;10.31;52.56;101901.36;1770287;80;25699;-57
2022/05/07 04:40:41;;;;;;;31.80;9.13;;;;;;;10.40;52.38;101902.59;1769986;80;26652;-57
2022/05/07 04:43:09;;;;;;;21.77;8.45;;;;;;;10.48;52.33;101913.67;1769942;81;27515;-56
2022/05/07 04:45:36;;;;;;;36.40;8.45;;;;;;;10.55;52.23;101902.84;1769873;80;25726;-57
2022/05/07 04:48:09;;;;;;;30.70;7.75;;;;;;;10.64;52.18;101911.62;1767838;81;25758;-57
2022/05/07 04:50:37;;;;;;;32.53;8.68;;;;;;;10.72;51.94;101912.44;1746878;80;26619;-57
2022/05/07 04:53:08;;;;;;;35.35;8.95;;;;;;;10.80;51.68;101911.39;1732010;82;26181;-57
2022/05/07 04:55:36;;;;;;;33.23;8.18;;;;;;;10.91;51.49;101900.34;1732735;82;27478;-57
2022/05/07 04:58:02;;;;;;;35.30;9.75;;;;;;;11.01;51.49;101904.09;1732753;82;25900;-57
2022/05/07 05:00:31;;;;;;;38.78;9.83;;;;;;;11.12;51.33;101900.12;1732805;81;26213;-57
2022/05/07 05:03:03;;;;;;;28.35;8.13;;;;;;;11.23;51.36;101901.17;1714891;82;25800;-57
2022/05/07 05:05:30;;;;;;;25.50;8.90;;;;;;;11.34;51.37;101901.25;1681936;84;25743;-56
2022/05/07 05:08:01;;;;;;;28.95;7.53;;;;;;;11.48;51.30;101902.91;1681991;84;28405;-57
2022/05/07 05:10:28;;;;;;;35.13;9.33;;;;;;;11.63;51.31;101895.99;1681535;85;25531;-57
2022/05/07 05:12:55;;;;;;;25.82;7.75;;;;;;;11.74;51.09;101892.85;1681727;84;25747;-57
2022/05/07 05:15:22;;;;;;;17.20;7.47;;;;;;;11.87;50.93;101897.33;1681763;84;25778;-57
2022/05/07 05:17:54;;;;;;;16.37;6.85;;;;;;;12.00;50.49;101896.80;1681871;84;25480;-56
2022/05/07 05:20:21;;;;;;;25.10;7.50;;;;;;;12.14;50.21;101892.16;1714038;83;27490;-56
2022/05/07 05:23:09;;;;;;;19.05;7.20;;;;;;;12.26;49.93;101894.39;1681613;85;25926;-57
2022/05/07 05:25:45;;;;;;;14.30;6.97;;;;;;;12.39;49.54;101901.91;1681806;84;25739;-57
2022/05/07 05:28:14;;;;;;;21.52;7.22;;;;;;;12.52;49.11;101899.10;1682491;84;25938;-57
2022/05/07 05:30:42;;;;;;;21.40;7.58;;;;;;;12.63;48.70;101897.77;1681083;85;25895;-57
2022/05/07 05:33:11;;;;;;;19.98;8.18;;;;;;;12.76;48.31;101899.00;1692238;83;27480;-56
2022/05/07 05:35:40;;;;;;;19.00;7.12;;;;;;;12.87;48.06;101899.95;1697740;83;25910;-56
2022/05/07 05:38:07;;;;;;;25.45;6.87;;;;;;;12.97;47.74;101903.63;1697824;83;25810;-57
2022/05/07 05:40:35;;;;;;;16.37;6.87;;;;;;;13.06;47.65;101915.55;1697721;83;25782;-57
2022/05/07 05:43:03;;;;;;;22.50;7.28;;;;;;;13.15;47.56;101910.74;1697842;83;25810;-57
2022/05/07 05:45:29;;;;;;;30.88;9.53;;;;;;;13.23;47.19;101915.50;1697927;84;27584;-57
2022/05/07 05:47:56;;;;;;;22.07;9.23;;;;;;;13.31;46.95;101910.36;1697872;83;25821;-58
2022/05/07 05:50:23;;;;;;;20.97;10.03;;;;;;;13.41;46.98;101908.61;1697967;83;25712;-58
2022/05/07 05:52:50;;;;;;;20.75;8.65;;;;;;;13.50;46.84;101912.42;1697865;84;25887;-57
2022/05/07 05:55:17;;;;;;;36.40;20.48;;;;;;;13.60;46.59;101916.55;1699280;83;25837;-57
2022/05/07 05:57:45;;;;;;;22.73;8.43;;;;;;;13.70;46.36;101916.66;1698249;83;27579;-57
2022/05/07 06:00:16;;;;;;;20.10;10.13;;;;;;;13.81;46.08;101913.88;1697932;84;25906;-57
2022/05/07 06:02:44;;;;;;;20.72;8.60;;;;;;;13.92;46.11;101919.25;1706758;84;25523;-57
2022/05/07 06:05:15;;;;;;;16.25;7.83;;;;;;;14.03;45.96;101921.03;1708113;83;25953;-57
2022/05/07 06:07:43;;;;;;;15.25;8.20;;;;;;;14.15;45.49;101917.80;1708466;82;26033;-57
2022/05/07 06:10:11;;;;;;;27.35;7.65;;;;;;;14.30;45.36;101921.01;1707791;84;29575;-57
2022/05/07 06:12:37;;;;;;;24.15;8.03;;;;;;;14.46;45.18;101915.64;1707811;84;25793;-57
2022/05/07 06:15:07;;;;;;;18.60;7.75;;;;;;;14.58;45.13;101916.41;1707823;84;25737;-57
2022/05/07 06:17:35;;;;;;;24.67;9.13;;;;;;;14.68;44.43;101920.91;1708068;83;26619;-57
2022/05/07 06:20:05;;;;;;;20.43;7.95;;;;;;;14.78;44.25;101918.27;1707797;84;25764;-57
2022/05/07 06:22:34;;;;;;;19.07;6.62;;;;;;;14.90;44.23;101919.50;1708283;83;28128;-57
2022/05/07 06:27:50;;;;;;;23.15;7.33;;;;;;;15.11;43.91;101909.94;1707995;83;25780;-57
2022/05/07 06:30:22;;;;;;;14.10;6.62;;;;;;;15.24;44.28;101915.14;1701791;83;26822;-57
2022/05/07 06:32:51;;;;;;;19.80;7.12;;;;;;;15.36;44.09;101914.52;1702473;83;25776;-57
2022/05/07 06:35:19;;;;;;;23.12;7.47;;;;;;;15.45;43.40;101918.59;1697867;83;27352;-57
2022/05/07 06:37:48;;;;;;;41.68;8.50;;;;;;;15.51;43.35;101913.11;1697437;83;25526;-57
2022/05/07 06:40:15;;;;;;;23.52;7.22;;;;;;;15.55;43.22;101917.75;1698025;83;25777;-57
2022/05/07 06:42:45;;;;;;;16.27;7.40;;;;;;;15.64;43.17;101919.61;1697931;84;26474;-57
2022/05/07 06:45:14;;;;;;;24.12;6.65;;;;;;;15.71;43.00;101926.69;1697789;84;26345;-57
2022/05/07 06:47:41;;;;;;;31.57;8.08;;;;;;;15.80;42.81;101923.12;1697976;84;27426;-57
2022/05/07 06:50:10;;;;;;;22.13;8.08;;;;;;;15.87;42.99;101916.16;1697659;82;25770;-58
2022/05/07 06:52:45;;;;;;;21.42;7.55;;;;;;;15.94;43.28;101915.94;1698307;83;25525;-57
2022/05/07 06:55:14;;;;;;;23.10;8.18;;;;;;;16.08;43.34;101917.87;1698221;84;26572;-57
2022/05/07 06:57:42;;;;;;;26.02;7.87;;;;;;;16.23;43.02;101917.77;1698400;84;26171;-58
2022/05/07 07:00:12;;;;;;;19.27;6.67;;;;;;;16.40;42.92;101919.38;1697995;84;27543;-56
2022/05/07 07:02:40;;;;;;;25.92;6.85;;;;;;;16.54;42.84;101910.74;1698132;83;25763;-57
2022/05/07 07:05:09;;;;;;;30.10;7.58;;;;;;;16.68;42.79;101915.36;1697989;83;25766;-57
2022/05/07 07:07:36;;;;;;;26.12;7.92;;;;;;;16.81;42.70;101910.43;1698315;84;25902;-57
2022/05/07 07:10:02;;;;;;;46.40;8.83;;;;;;;16.95;42.44;101910.98;1698026;83;26005;-57
2022/05/07 07:12:29;;;;;;;26.70;8.58;;;;;;;17.07;42.79;101900.77;1698176;83;28491;-57
2022/05/07 07:14:57;;;;;;;15.18;7.42;;;;;;;17.24;42.86;101904.55;1698089;84;25987;-57
2022/05/07 07:17:25;;;;;;;19.32;6.08;;;;;;;17.38;42.00;101905.38;1698013;84;25493;-57
2022/05/07 07:19:52;;;;;;;13.75;6.42;;;;;;;17.51;41.88;101907.72;1698050;84;25800;-57
2022/05/07 07:22:19;;;;;;;19.77;5.70;;;;;;;17.64;39.56;101907.33;1697852;84;25830;-57
2022/05/07 07:24:46;;;;;;;13.45;5.72;;;;;;;17.75;39.04;101907.11;1697977;84;27497;-57
2022/05/07 07:27:14;;;;;;;18.75;5.80;;;;;;;17.84;35.79;101900.73;1697792;84;25836;-56
2022/05/07 07:29:44;;;;;;;11.40;5.28;;;;;;;17.91;34.39;101903.69;1697857;83;25679;-57
2022/05/07 07:32:10;;;;;;;12.25;5.70;;;;;;;18.00;33.40;101899.17;1711059;82;26041;-57
2022/05/07 07:34:37;;;;;;;11.15;5.35;;;;;;;18.11;30.19;101904.37;1720672;83;25745;-57
2022/05/07 07:37:05;;;;;;;14.55;4.83;;;;;;;18.14;30.82;101905.44;1720665;83;28492;-57
2022/05/07 07:39:32;;;;;;;18.95;5.12;;;;;;;18.21;30.00;101903.42;1720718;83;25775;-57
2022/05/07 07:41:59;;;;;;;14.47;4.90;;;;;;;18.26;29.63;101906.52;1720625;83;25562;-57
2022/05/07 07:44:29;;;;;;;26.17;5.20;;;;;;;18.28;29.94;101904.00;1720589;83;26741;-57
2022/05/07 07:49:42;;;;;;;10.28;4.95;;;;;;;18.45;29.87;101912.28;1719290;83;27518;-57
2022/05/07 07:52:10;;;;;;;20.00;5.33;;;;;;;18.56;29.64;101909.26;1715271;83;25759;-57
2022/05/07 07:54:37;;;;;;;13.25;4.87;;;;;;;18.62;28.68;101913.22;1715068;83;25714;-57
2022/05/07 07:57:05;;;;;;;15.60;5.78;;;;;;;18.67;28.45;101906.79;1715256;83;25938;-57
2022/05/07 07:59:34;;;;;;;28.40;4.75;;;;;;;18.71;28.92;101903.23;1715460;83;25522;-56
2022/05/07 08:02:01;;;;;;;24.92;4.80;;;;;;;18.79;27.89;101915.53;1718311;83;28582;-57
2022/05/07 08:04:27;;;;;;;17.42;5.05;;;;;;;18.89;27.42;101910.81;1751989;81;25826;-57
2022/05/07 08:12:25;;;;;;;14.98;4.17;;;;;;;19.13;27.08;101894.75;1751721;81;25783;-57
2022/05/07 08:14:51;;;;;;;18.07;4.40;;;;;;;19.26;26.61;101903.30;1752008;81;28487;-57
2022/05/07 08:17:18;;;;;;;15.20;4.45;;;;;;;19.37;27.19;101901.63;1751702;81;25795;-57
2022/05/07 08:19:45;;;;;;;13.78;4.65;;;;;;;19.49;26.71;101898.06;1752404;81;25750;-57
2022/05/07 08:22:14;;;;;;;23.77;4.70;;;;;;;19.59;27.14;101888.34;1751896;81;26013;-57
2022/05/07 08:24:41;;;;;;;18.52;5.10;;;;;;;19.78;26.84;101893.14;1751815;81;25677;-57
2022/05/07 08:27:08;;;;;;;17.42;4.80;;;;;;;19.86;26.45;101894.53;1751953;81;27426;-57
2022/05/07 08:29:35;;;;;;;13.30;5.40;;;;;;;19.92;26.60;101878.86;1752176;81;25868;-57
2022/05/07 08:32:02;;;;;;;15.10;4.53;;;;;;;20.07;26.02;101880.39;1736836;81;25489;-57
2022/05/07 08:34:29;;;;;;;12.30;4.72;;;;;;;20.17;24.29;101883.77;1629545;88;26805;-57
2022/05/07 08:36:56;;;;;;;8.65;4.30;;;;;;;20.22;24.82;101885.98;1629579;88;25810;-57
2022/05/07 08:39:25;;;;;;;16.62;4.53;;;;;;;20.28;24.66;101885.31;1629535;88;27318;-57
2022/05/07 08:41:52;;;;;;;10.05;4.42;;;;;;;20.40;24.77;101879.45;1629478;86;25486;-57
2022/05/07 08:44:19;;;;;;;11.18;4.67;;;;;;;20.57;24.90;101882.52;1629565;86;25711;-57
2022/05/07 08:46:46;;;;;;;16.30;5.33;;;;;;;20.73;24.72;101883.48;1629363;86;25763;-57
2022/05/07 08:49:13;;;;;;;11.75;4.35;;;;;;;20.82;25.17;101879.72;1630465;86;25541;-57
2022/05/07 08:51:41;;;;;;;15.03;5.85;;;;;;;20.94;25.61;101877.44;1691025;84;28366;-57
2022/05/07 08:54:10;;;;;;;10.00;4.50;;;;;;;21.09;25.67;101877.53;1690679;84;26180;-57
2022/05/07 08:56:36;;;;;;;17.20;4.45;;;;;;;21.25;25.01;101873.83;1690921;84;25868;-57
2022/05/07 08:59:03;;;;;;;11.08;4.35;;;;;;;21.44;25.21;101876.64;1690728;83;25788;-57
2022/05/07 09:01:30;;;;;;;13.28;4.03;;;;;;;21.62;24.20;101870.05;1678555;84;26142;-58
2022/05/07 09:04:02;;;;;;;24.05;4.75;;;;;;;21.71;23.65;101878.00;1657025;86;27484;-58
2022/05/07 09:06:29;;;;;;;7.28;4.05;;;;;;;21.80;23.92;101876.56;1655632;84;25496;-57
2022/05/07 09:08:57;;;;;;;13.83;4.25;;;;;;;21.89;23.59;101871.34;1656887;86;25724;-58
2022/05/07 09:11:24;;;;;;;14.78;4.65;;;;;;;21.98;23.46;101876.25;1657382;86;25917;-57
2022/05/07 09:14:04;;;;;;;18.70;3.83;;;;;;;22.04;23.47;101872.25;1657177;86;26271;-58
2022/05/07 09:16:45;;;;;;;15.70;4.65;;;;;;;22.11;22.99;101881.93;1657503;86;27430;-57
2022/05/07 09:19:27;;;;;;;14.43;4.37;;;;;;;22.25;22.79;101878.05;1657037;86;25802;-57
2022/05/07 09:22:08;;;;;;;9.90;4.28;;;;;;;22.47;22.76;101878.51;1657609;86;25536;-57
2022/05/07 09:24:36;;;;;;;17.40;4.22;;;;;;;22.84;22.27;101860.77;1657537;86;26547;-57
2022/05/07 09:27:04;;;;;;;11.65;4.30;;;;;;;23.41;22.27;101853.64;1657474;86;25914;-57
2022/05/07 09:29:34;;;;;;;14.78;3.72;;;;;;;23.74;22.14;101863.25;1657481;86;27464;-57
2022/05/07 09:32:13;;;;;;;11.50;3.25;;;;;;;23.98;20.97;101860.61;1668015;83;25948;-57
2022/05/07 09:37:39;;;;;;;13.10;3.70;;;;;;;24.66;20.87;101849.51;1709728;83;25861;-58
2022/05/07 09:40:09;;;;;;;8.78;3.25;;;;;;;24.87;20.53;101855.48;1710412;83;25752;-58
2022/05/07 09:42:37;;;;;;;46.02;4.05;;;;;;;24.94;20.58;101849.98;1710325;83;27472;-57
2022/05/07 09:45:06;;;;;;;16.45;3.60;;;;;;;25.16;20.36;101849.31;1707346;83;25736;-58
2022/05/07 09:47:34;;;;;;;10.38;4.17;;;;;;;25.16;19.88;101846.56;1699689;83;25798;-57
2022/05/07 09:50:23;;;;;;;15.80;4.42;;;;;;;24.88;19.90;101850.27;1703733;83;25731;-57
2022/05/07 09:58:21;;;;;;;10.90;3.45;;;;;;;24.45;20.35;101846.34;1710264;83;25728;-58
2022/05/07 10:00:57;;;;;;;7.42;3.05;;;;;;;24.46;19.96;101850.78;1712918;82;25784;-58
2022/05/07 10:03:35;;;;;;;23.98;3.40;;;;;;;24.38;20.13;101849.91;1745359;82;25759;-58
2022/05/07 10:06:32;;;;;;;10.32;3.52;;;;;;;24.54;20.67;101850.63;1713592;82;25882;-58
2022/05/07 10:09:26;;;;;;;8.83;3.12;;;;;;;24.90;20.69;101849.55;1746164;81;28282;-58
2022/05/07 10:11:58;;;;;;;10.60;3.42;;;;;;;24.97;20.37;101846.83;1745764;82;25760;-57
2022/05/07 10:14:31;;;;;;;10.58;3.05;;;;;;;25.12;20.34;101846.13;1746569;82;25482;-58
2022/05/07 10:17:12;;;;;;;32.93;4.53;;;;;;;25.75;19.84;101846.36;1746018;82;25787;-58
2022/05/07 10:19:43;;;;;;;12.37;3.17;;;;;;;26.41;19.56;101841.00;1746318;81;25927;-58
2022/05/07 10:22:24;;;;;;;17.55;3.55;;;;;;;27.12;18.83;101836.48;1745856;82;27422;-58
2022/05/07 10:25:12;;;;;;;12.95;3.40;;;;;;;27.61;17.83;101829.08;1746308;82;25776;-58
2022/05/07 10:27:42;;;;;;;9.85;2.92;;;;;;;27.73;17.32;101825.04;1746229;82;25507;-58
2022/05/07 10:30:23;;;;;;;15.08;3.87;;;;;;;27.47;17.56;101831.95;1741838;81;25879;-58
2022/05/07 10:33:02;;;;;;;15.50;3.55;;;;;;;27.55;17.66;101831.36;1743895;82;25798;-58
2022/05/07 10:35:53;;;;;;;9.95;3.02;;;;;;;27.78;17.98;101822.45;1742757;82;27498;-58
2022/05/07 10:38:36;;;;;;;13.10;3.47;;;;;;;28.13;18.29;101818.31;1742731;81;25764;-58
2022/05/07 10:41:08;;;;;;;10.53;3.65;;;;;;;28.53;17.80;101825.63;1742664;82;25844;-58
2022/05/07 10:43:38;;;;;;;9.90;3.40;;;;;;;28.97;18.01;101810.30;1743174;82;25908;-58
2022/05/07 10:46:16;;;;;;;13.60;3.90;;;;;;;29.23;17.90;101816.52;1742657;82;25855;-58
2022/05/07 10:48:50;;;;;;;6.80;3.02;;;;;;;29.11;18.07;101810.09;1743125;82;27616;-58
2022/05/07 10:51:21;;;;;;;17.23;3.77;;;;;;;28.92;17.80;101810.69;1710771;82;25764;-58
2022/05/07 10:53:49;;;;;;;12.13;3.17;;;;;;;28.76;18.32;101795.56;1706648;83;25825;-58
2022/05/07 10:56:21;;;;;;;15.23;4.37;;;;;;;28.81;18.54;101796.55;1706366;84;26065;-57
2022/05/07 10:58:51;;;;;;;6.90;2.70;;;;;;;28.75;18.75;101796.12;1706890;84;25786;-58
2022/05/07 11:01:21;;;;;;;8.83;3.37;;;;;;;28.70;18.94;101789.89;1699325;84;27552;-58
2022/05/07 11:03:49;;;;;;;10.88;3.75;;;;;;;28.48;18.99;101783.97;1684571;84;26168;-58
2022/05/07 11:06:16;;;;;;;9.48;3.50;;;;;;;28.50;19.32;101779.58;1684277;85;25865;-58
2022/05/07 11:08:52;;;;;;;8.25;2.67;;;;;;;28.81;18.72;101786.86;1684587;85;25920;-58
2022/05/07 11:11:19;;;;;;;12.23;2.85;;;;;;;29.11;18.41;101783.77;1684366;84;25802;-58
2022/05/07 11:13:52;;;;;;;9.30;3.55;;;;;;;29.51;18.39;101782.63;1684363;84;27474;-58
2022/05/07 11:16:20;;;;;;;;;;;;;;;29.74;18.18;101780.11;1686759;84;25795;-58
2022/05/07 11:18:51;;;;;;;17.00;3.12;;;;;;;29.58;17.89;101772.81;1684580;85;26846;-58
2022/05/07 11:21:23;;;;;;;9.18;3.17;;;;;;;29.53;18.44;101762.14;1684219;85;25934;-57
2022/05/07 11:24:00;;;;;;;9.48;2.70;;;;;;;29.90;17.73;101766.89;1684456;84;25726;-58
2022/05/07 11:26:27;;;;;;;7.97;2.90;;;;;;;29.92;17.82;101771.69;1684262;85;27541;-58
2022/05/07 11:28:55;;;;;;;12.18;3.67;;;;;;;30.18;17.42;101772.81;1684468;85;25864;-58
2022/05/07 11:31:34;;;;;;;12.70;3.22;;;;;;;30.70;17.36;101775.59;1684305;84;25767;-59
2022/05/07 11:34:08;;;;;;;15.35;3.58;;;;;;;31.17;17.46;101764.80;1681873;85;25896;-59
2022/05/07 11:36:37;;;;;;;8.65;3.30;;;;;;;31.59;17.07;101759.94;1681865;84;25740;-58
2022/05/07 11:39:06;;;;;;;9.40;2.62;;;;;;;32.04;15.92;101757.56;1681854;85;27415;-59
2022/05/07 11:41:36;;;;;;;9.50;3.00;;;;;;;32.43;15.76;101749.73;1681746;84;25706;-59
2022/05/07 11:46:55;;;;;;;14.05;3.17;;;;;;;33.57;15.33;101736.88;1681746;85;26301;-59
2022/05/07 11:49:35;;;;;;;7.35;2.60;;;;;;;34.23;14.68;101738.39;1683319;84;25766;-59
2022/05/07 11:52:10;;;;;;;7.40;2.37;;;;;;;34.40;13.63;101739.58;1699832;84;27421;-58
2022/05/07 11:54:50;;;;;;;9.18;2.42;;;;;;;34.34;13.46;101745.66;1699908;84;25764;-59
2022/05/07 11:57:33;;;;;;;13.88;2.52;;;;;;;34.36;13.95;101742.63;1700054;84;25701;-59
2022/05/07 12:00:26;;;;;;;6.92;2.47;;;;;;;34.51;13.50;101745.48;1699924;84;25835;-59